createdAt,value
2022-09-30T00:07:07.917Z,10.75
2022-09-30T00:12:12.151Z,10.82
2022-09-30T00:17:16.313Z,12.05
2022-09-30T00:22:22.066Z,11.77
2022-09-30T00:27:26.260Z,11.23
2022-09-30T00:32:30.419Z,11.27
2022-09-30T00:37:36.444Z,9.65
2022-09-30T00:42:42.137Z,11.88
2022-09-30T00:47:53.731Z,11.50
2022-09-30T00:53:06.501Z,9.77
2022-09-30T00:58:13.747Z,10.63
2022-09-30T01:03:18.759Z,11.38
2022-09-30T01:08:25.886Z,11.33
2022-09-30T01:13:32.191Z,9.75
2022-09-30T01:18:51.098Z,10.65
2022-09-30T01:24:15.228Z,11.00
2022-09-30T01:30:02.168Z,11.18
2022-09-30T01:35:18.677Z,11.25
2022-09-30T01:40:25.962Z,11.65
2022-09-30T01:45:36.580Z,10.98
2022-09-30T01:50:51.482Z,9.57
2022-09-30T01:56:01.293Z,8.93
2022-09-30T02:01:11.588Z,10.00
2022-09-30T02:06:21.144Z,11.05
2022-09-30T02:11:28.504Z,12.15
2022-09-30T02:16:40.121Z,12.18
2022-09-30T02:21:49.533Z,10.73
2022-09-30T02:26:56.941Z,12.50
2022-09-30T02:32:06.675Z,11.38
2022-09-30T02:37:17.520Z,14.20
2022-09-30T02:42:27.546Z,15.75
2022-09-30T02:47:41.445Z,12.82
2022-09-30T02:53:02.200Z,12.15
2022-09-30T02:58:12.980Z,14.43
2022-09-30T03:03:21.748Z,16.58
2022-09-30T03:08:27.676Z,14.13
2022-09-30T03:14:16.180Z,16.17
2022-09-30T03:19:40.493Z,13.82
2022-09-30T03:25:01.836Z,16.58
2022-09-30T03:30:09.030Z,15.85
2022-09-30T03:35:21.340Z,15.63
2022-09-30T03:40:34.053Z,14.70
2022-09-30T03:45:43.177Z,16.73
2022-09-30T03:50:47.542Z,18.73
2022-09-30T03:55:54.187Z,18.55
2022-09-30T04:00:59.149Z,17.77
2022-09-30T04:06:03.329Z,14.77
2022-09-30T04:11:08.772Z,16.35
2022-09-30T04:16:12.905Z,14.55
2022-09-30T04:21:18.487Z,14.93
2022-09-30T04:26:23.801Z,14.40
2022-09-30T04:31:30.387Z,15.93
2022-09-30T04:36:34.723Z,13.70
2022-09-30T04:41:40.993Z,14.32
2022-09-30T04:46:44.978Z,12.65
2022-09-30T04:51:49.783Z,10.20
2022-09-30T04:56:55.266Z,9.25
2022-09-30T05:01:59.679Z,12.35
2022-09-30T05:07:06.604Z,12.02
2022-09-30T05:12:12.442Z,10.07
2022-09-30T05:17:16.682Z,11.15
2022-09-30T05:22:20.574Z,11.38
2022-09-30T05:27:26.474Z,10.35
2022-09-30T05:32:31.801Z,11.73
2022-09-30T05:37:35.777Z,10.07
2022-09-30T05:42:41.194Z,10.20
2022-09-30T05:47:45.066Z,9.95
2022-09-30T05:52:49.621Z,9.68
2022-09-30T05:57:55.137Z,8.23
2022-09-30T06:02:59.155Z,8.23
2022-09-30T06:08:03.773Z,9.13
2022-09-30T06:13:09.482Z,7.25
2022-09-30T06:18:17.649Z,7.70
2022-09-30T06:23:22.037Z,8.02
2022-09-30T06:28:27.630Z,7.68
2022-09-30T06:33:32.082Z,7.78
2022-09-30T06:38:38.301Z,7.05
2022-09-30T06:43:46.478Z,7.97
2022-09-30T06:49:10.013Z,7.30
2022-09-30T06:54:16.365Z,5.82
2022-09-30T06:59:21.520Z,5.70
2022-09-30T07:04:25.402Z,5.82
2022-09-30T07:09:29.404Z,6.20
2022-09-30T07:14:41.093Z,5.95
2022-09-30T07:19:45.157Z,7.40
2022-09-30T07:24:49.109Z,6.07
2022-09-30T07:30:09.290Z,5.57
2022-09-30T07:35:15.404Z,4.05
2022-09-30T07:40:19.637Z,3.67
2022-09-30T07:45:25.445Z,3.13
2022-09-30T07:50:29.385Z,3.60
2022-09-30T07:55:33.226Z,2.72
2022-09-30T08:00:42.601Z,3.10
2022-09-30T08:05:48.614Z,3.20
2022-09-30T08:10:52.543Z,2.75
2022-09-30T08:16:00.864Z,2.70
2022-09-30T08:21:06.446Z,3.10
2022-09-30T08:26:11.955Z,3.42
2022-09-30T08:31:19.515Z,3.10
2022-09-30T08:36:25.562Z,2.70
2022-09-30T08:41:52.390Z,2.90
2022-09-30T08:47:03.837Z,3.10
2022-09-30T08:52:24.621Z,2.90
2022-09-30T09:04:41.641Z,4.35
2022-09-30T09:15:12.423Z,3.75
2022-09-30T09:20:20.376Z,3.40
2022-09-30T09:25:29.078Z,3.55
2022-09-30T09:30:39.445Z,3.65
2022-09-30T09:35:51.408Z,3.80
2022-09-30T09:41:06.368Z,4.50
2022-09-30T09:46:16.552Z,4.60
2022-09-30T09:51:29.298Z,4.43
2022-09-30T09:56:34.681Z,3.35
2022-09-30T10:01:40.904Z,3.85
2022-09-30T10:06:53.062Z,3.67
2022-09-30T10:12:30.402Z,4.25
2022-09-30T10:17:35.958Z,3.97
2022-09-30T10:27:50.768Z,4.93
2022-09-30T10:32:54.587Z,5.60
2022-09-30T10:38:01.547Z,4.97
2022-09-30T10:43:05.329Z,6.43
2022-09-30T10:48:20.258Z,4.82
2022-09-30T10:53:27.570Z,4.68
2022-09-30T10:58:44.003Z,5.70
2022-09-30T11:03:58.790Z,4.88
2022-09-30T11:09:08.067Z,4.80
2022-09-30T11:14:31.044Z,6.05
2022-09-30T11:19:41.167Z,5.85
2022-09-30T11:24:49.268Z,7.28
2022-09-30T11:30:04.882Z,6.95
2022-09-30T11:35:24.997Z,6.93
2022-09-30T11:40:39.281Z,8.52
2022-09-30T11:46:00.417Z,8.73
2022-09-30T11:51:15.180Z,7.90
2022-09-30T11:56:33.912Z,8.43
2022-09-30T12:01:43.990Z,9.20
2022-09-30T12:06:52.002Z,9.52
2022-09-30T12:12:02.395Z,10.93
2022-09-30T12:17:19.833Z,11.15
2022-09-30T12:22:29.657Z,12.82
2022-09-30T12:27:41.490Z,13.07
2022-09-30T12:33:11.790Z,12.18
2022-09-30T12:38:31.388Z,10.13
2022-09-30T12:44:09.913Z,10.70
2022-09-30T12:49:19.973Z,10.48
2022-09-30T12:54:28.383Z,11.20
2022-09-30T12:59:36.688Z,11.68
2022-09-30T13:04:43.020Z,9.68
2022-09-30T13:10:24.661Z,8.05
2022-09-30T13:15:46.656Z,8.13
2022-09-30T13:20:56.498Z,7.90
2022-09-30T13:26:02.060Z,8.68
2022-09-30T13:31:19.333Z,7.82
2022-09-30T13:36:32.427Z,7.78
2022-09-30T13:41:39.635Z,9.98
2022-09-30T13:46:50.970Z,11.60
2022-09-30T13:51:56.599Z,9.02
2022-09-30T13:57:01.742Z,9.07
2022-09-30T14:02:35.025Z,7.25
2022-09-30T14:07:51.566Z,6.57
2022-09-30T14:13:09.152Z,7.32
2022-09-30T14:18:58.325Z,7.38
2022-09-30T14:24:04.576Z,6.72
2022-09-30T14:29:17.502Z,7.28
2022-09-30T14:34:25.676Z,8.80
2022-09-30T14:39:32.998Z,7.68
2022-09-30T14:44:38.180Z,7.30
2022-09-30T14:49:43.464Z,7.20
2022-09-30T14:54:48.714Z,6.82
2022-09-30T14:59:52.400Z,5.95
2022-09-30T15:05:01.296Z,6.70
2022-09-30T15:10:07.598Z,6.00
2022-09-30T15:15:25.960Z,5.65
2022-09-30T15:20:33.877Z,7.00
2022-09-30T15:25:38.780Z,8.02
2022-09-30T15:30:43.586Z,9.43
2022-09-30T15:35:49.132Z,9.23
2022-09-30T15:41:00.128Z,8.70
2022-09-30T15:46:27.238Z,10.65
2022-09-30T15:51:39.584Z,8.00
2022-09-30T15:56:44.519Z,6.97
2022-09-30T16:01:50.041Z,6.07
2022-09-30T16:06:57.922Z,6.05
2022-09-30T16:12:06.307Z,7.72
2022-09-30T16:17:18.824Z,8.15
2022-09-30T16:22:51.615Z,6.50
2022-09-30T16:27:59.265Z,5.65
2022-09-30T16:33:06.181Z,5.25
2022-09-30T16:38:15.263Z,5.72
2022-09-30T16:46:01.055Z,6.80
2022-09-30T16:51:07.194Z,6.93
2022-09-30T16:56:16.613Z,5.18
2022-09-30T17:01:23.411Z,5.38
2022-09-30T17:06:29.640Z,5.28
2022-09-30T17:11:36.596Z,7.32
2022-09-30T17:16:41.645Z,9.40
2022-09-30T17:21:45.696Z,6.13
2022-09-30T17:26:50.032Z,8.85
2022-09-30T17:31:55.705Z,9.02
2022-09-30T17:37:00.099Z,8.13
2022-09-30T17:42:21.547Z,10.80
2022-09-30T17:47:26.969Z,8.13
2022-09-30T17:52:34.354Z,7.10
2022-09-30T17:57:40.032Z,6.35
2022-09-30T18:02:45.585Z,6.13
2022-09-30T18:07:49.408Z,5.70
2022-09-30T18:12:54.786Z,7.10
2022-09-30T18:18:00.335Z,7.93
2022-09-30T18:23:04.049Z,6.53
2022-09-30T18:28:09.452Z,6.88
2022-09-30T18:33:17.454Z,5.35
2022-09-30T18:38:21.485Z,5.30
2022-09-30T18:43:25.147Z,6.00
2022-09-30T18:48:31.251Z,7.50
2022-09-30T18:53:35.482Z,7.90
2022-09-30T18:58:40.234Z,7.18
2022-09-30T19:03:45.358Z,6.63
2022-09-30T19:08:49.108Z,5.73
2022-09-30T19:13:55.949Z,7.50
2022-09-30T19:19:04.603Z,10.52
2022-09-30T19:24:10.527Z,7.85
2022-09-30T19:29:14.913Z,6.10
2022-09-30T19:34:31.124Z,5.88
2022-09-30T19:39:44.192Z,6.60
2022-09-30T19:44:49.443Z,13.93
2022-09-30T19:49:54.764Z,6.65
2022-09-30T19:55:10.462Z,6.90
2022-09-30T20:00:18.949Z,6.43
2022-09-30T20:05:24.335Z,6.30
2022-09-30T20:10:28.012Z,6.93
2022-09-30T20:15:49.014Z,6.30
2022-09-30T20:20:57.414Z,6.15
2022-09-30T20:26:02.242Z,7.50
2022-09-30T20:31:07.845Z,6.00
2022-09-30T20:41:17.363Z,6.77
2022-09-30T20:46:21.817Z,6.18
2022-09-30T20:51:28.021Z,6.07
2022-09-30T20:56:49.674Z,6.93
2022-09-30T21:01:56.476Z,6.55
2022-09-30T21:07:01.975Z,7.95
2022-09-30T21:12:06.581Z,6.85
2022-09-30T21:22:17.284Z,7.15
2022-09-30T21:32:24.497Z,7.07
2022-09-30T21:37:29.900Z,7.15
2022-09-30T21:42:33.976Z,7.57
2022-09-30T21:47:37.658Z,9.02
2022-09-30T21:52:42.990Z,8.65
2022-09-30T21:57:47.538Z,8.43
2022-09-30T22:02:51.237Z,7.95
2022-09-30T22:07:59.552Z,7.50
2022-09-30T22:13:03.196Z,7.10
2022-09-30T22:18:10.444Z,7.63
2022-09-30T22:23:17.305Z,7.93
2022-09-30T22:28:21.134Z,7.88
2022-09-30T22:33:42.597Z,11.02
2022-09-30T22:38:48.604Z,12.10
2022-09-30T22:43:52.394Z,10.27
2022-09-30T22:48:57.428Z,12.45
2022-09-30T22:54:03.573Z,14.10
2022-09-30T22:59:08.728Z,13.52
2022-09-30T23:04:16.691Z,9.23
2022-09-30T23:09:22.380Z,10.75
2022-09-30T23:14:26.336Z,10.30
2022-09-30T23:19:30.531Z,12.02
2022-09-30T23:24:35.504Z,14.98
2022-09-30T23:29:39.201Z,9.83
2022-09-30T23:34:43.184Z,23.63
2022-09-30T23:39:48.458Z,18.35
2022-09-30T23:44:52.250Z,18.25
2022-09-30T23:49:56.542Z,8.88
2022-09-30T23:55:02.316Z,9.00
